sensor_id;sensor_type;location;lat;lon;timestamp;P1;durP1;ratioP1;P2;durP2;ratioP2
16593;SDS011;8410;52.532;13.336;2023-05-28T00:00:07;56.80;;;45.60;;
16593;SDS011;8410;52.532;13.336;2023-05-28T00:02:36;16.20;;;11.13;;
16593;SDS011;8410;52.532;13.336;2023-05-28T00:05:05;7.40;;;4.97;;
16593;SDS011;8410;52.532;13.336;2023-05-28T00:07:34;21.80;;;17.00;;
16593;SDS011;8410;52.532;13.336;2023-05-28T00:10:02;20.10;;;13.93;;
16593;SDS011;8410;52.532;13.336;2023-05-28T00:12:30;17.30;;;13.93;;
16593;SDS011;8410;52.532;13.336;2023-05-28T00:14:57;31.40;;;23.33;;
16593;SDS011;8410;52.532;13.336;2023-05-28T00:17:25;11.10;;;7.90;;
16593;SDS011;8410;52.532;13.336;2023-05-28T00:19:54;11.03;;;6.40;;
16593;SDS011;8410;52.532;13.336;2023-05-28T00:22:22;17.03;;;13.53;;
16593;SDS011;8410;52.532;13.336;2023-05-28T00:24:51;16.67;;;12.20;;
16593;SDS011;8410;52.532;13.336;2023-05-28T00:27:18;20.90;;;14.77;;
16593;SDS011;8410;52.532;13.336;2023-05-28T00:29:46;18.73;;;15.47;;
16593;SDS011;8410;52.532;13.336;2023-05-28T00:32:13;9.17;;;5.60;;
16593;SDS011;8410;52.532;13.336;2023-05-28T00:34:41;10.50;;;8.60;;
16593;SDS011;8410;52.532;13.336;2023-05-28T00:37:08;13.70;;;8.80;;
16593;SDS011;8410;52.532;13.336;2023-05-28T00:39:36;10.60;;;6.97;;
16593;SDS011;8410;52.532;13.336;2023-05-28T00:42:05;9.47;;;6.53;;
16593;SDS011;8410;52.532;13.336;2023-05-28T00:44:35;13.10;;;9.87;;
16593;SDS011;8410;52.532;13.336;2023-05-28T00:47:04;13.33;;;9.67;;
16593;SDS011;8410;52.532;13.336;2023-05-28T00:49:32;9.47;;;7.37;;
16593;SDS011;8410;52.532;13.336;2023-05-28T00:52:00;37.13;;;29.50;;
16593;SDS011;8410;52.532;13.336;2023-05-28T00:54:29;10.63;;;6.23;;
16593;SDS011;8410;52.532;13.336;2023-05-28T00:56:57;12.97;;;7.07;;
16593;SDS011;8410;52.532;13.336;2023-05-28T00:59:28;23.10;;;17.13;;
16593;SDS011;8410;52.532;13.336;2023-05-28T01:01:56;23.17;;;15.60;;
16593;SDS011;8410;52.532;13.336;2023-05-28T01:04:24;15.53;;;6.97;;
16593;SDS011;8410;52.532;13.336;2023-05-28T01:06:55;7.73;;;5.03;;
16593;SDS011;8410;52.532;13.336;2023-05-28T01:09:24;9.27;;;5.97;;
16593;SDS011;8410;52.532;13.336;2023-05-28T01:11:52;12.33;;;8.77;;
16593;SDS011;8410;52.532;13.336;2023-05-28T01:14:21;14.37;;;9.10;;
16593;SDS011;8410;52.532;13.336;2023-05-28T01:16:52;9.37;;;5.63;;
16593;SDS011;8410;52.532;13.336;2023-05-28T01:19:21;16.87;;;11.23;;
16593;SDS011;8410;52.532;13.336;2023-05-28T01:21:55;26.53;;;17.10;;
16593;SDS011;8410;52.532;13.336;2023-05-28T01:24:26;10.83;;;7.40;;
16593;SDS011;8410;52.532;13.336;2023-05-28T01:26:55;9.00;;;6.57;;
16593;SDS011;8410;52.532;13.336;2023-05-28T01:29:23;12.07;;;8.00;;
16593;SDS011;8410;52.532;13.336;2023-05-28T01:31:50;11.07;;;7.50;;
16593;SDS011;8410;52.532;13.336;2023-05-28T01:34:18;21.03;;;14.70;;
16593;SDS011;8410;52.532;13.336;2023-05-28T01:36:46;27.40;;;22.27;;
16593;SDS011;8410;52.532;13.336;2023-05-28T01:39:19;11.37;;;8.30;;
16593;SDS011;8410;52.532;13.336;2023-05-28T01:41:52;12.77;;;11.40;;
16593;SDS011;8410;52.532;13.336;2023-05-28T01:44:20;8.50;;;5.47;;
16593;SDS011;8410;52.532;13.336;2023-05-28T01:46:49;7.77;;;5.37;;
16593;SDS011;8410;52.532;13.336;2023-05-28T01:49:19;11.50;;;8.67;;
16593;SDS011;8410;52.532;13.336;2023-05-28T01:51:49;14.47;;;10.23;;
16593;SDS011;8410;52.532;13.336;2023-05-28T01:54:17;11.50;;;8.00;;
16593;SDS011;8410;52.532;13.336;2023-05-28T01:56:44;14.43;;;8.30;;
16593;SDS011;8410;52.532;13.336;2023-05-28T01:59:13;8.27;;;5.40;;
16593;SDS011;8410;52.532;13.336;2023-05-28T02:01:43;5.97;;;4.80;;
16593;SDS011;8410;52.532;13.336;2023-05-28T02:04:11;11.17;;;5.90;;
16593;SDS011;8410;52.532;13.336;2023-05-28T02:06:38;17.00;;;14.07;;
16593;SDS011;8410;52.532;13.336;2023-05-28T02:09:07;9.83;;;6.73;;
16593;SDS011;8410;52.532;13.336;2023-05-28T02:11:34;12.50;;;6.90;;
16593;SDS011;8410;52.532;13.336;2023-05-28T02:14:02;10.90;;;5.57;;
16593;SDS011;8410;52.532;13.336;2023-05-28T02:16:32;12.63;;;5.20;;
16593;SDS011;8410;52.532;13.336;2023-05-28T02:19:01;7.63;;;5.10;;
16593;SDS011;8410;52.532;13.336;2023-05-28T02:21:29;10.87;;;5.70;;
16593;SDS011;8410;52.532;13.336;2023-05-28T02:23:57;11.60;;;6.77;;
16593;SDS011;8410;52.532;13.336;2023-05-28T02:26:24;29.65;;;22.75;;
16593;SDS011;8410;52.532;13.336;2023-05-28T02:28:52;65.67;;;52.00;;
16593;SDS011;8410;52.532;13.336;2023-05-28T02:31:19;92.40;;;74.67;;
16593;SDS011;8410;52.532;13.336;2023-05-28T02:33:48;83.47;;;61.67;;
16593;SDS011;8410;52.532;13.336;2023-05-28T02:36:16;134.10;;;102.43;;
16593;SDS011;8410;52.532;13.336;2023-05-28T02:38:43;93.73;;;71.57;;
16593;SDS011;8410;52.532;13.336;2023-05-28T02:41:11;71.83;;;53.13;;
16593;SDS011;8410;52.532;13.336;2023-05-28T02:43:38;65.93;;;52.60;;
16593;SDS011;8410;52.532;13.336;2023-05-28T02:46:06;46.37;;;32.97;;
16593;SDS011;8410;52.532;13.336;2023-05-28T02:48:34;9.77;;;6.60;;
16593;SDS011;8410;52.532;13.336;2023-05-28T02:51:03;8.87;;;5.23;;
16593;SDS011;8410;52.532;13.336;2023-05-28T02:53:30;9.40;;;5.20;;
16593;SDS011;8410;52.532;13.336;2023-05-28T02:55:58;9.57;;;5.27;;
16593;SDS011;8410;52.532;13.336;2023-05-28T02:58:26;9.30;;;5.57;;
16593;SDS011;8410;52.532;13.336;2023-05-28T03:00:54;8.50;;;4.93;;
16593;SDS011;8410;52.532;13.336;2023-05-28T03:03:22;13.43;;;6.13;;
16593;SDS011;8410;52.532;13.336;2023-05-28T03:05:50;9.20;;;5.37;;
16593;SDS011;8410;52.532;13.336;2023-05-28T03:08:19;9.57;;;5.30;;
16593;SDS011;8410;52.532;13.336;2023-05-28T03:10:47;9.57;;;5.97;;
16593;SDS011;8410;52.532;13.336;2023-05-28T03:13:14;11.50;;;6.30;;
16593;SDS011;8410;52.532;13.336;2023-05-28T03:15:42;10.57;;;5.10;;
16593;SDS011;8410;52.532;13.336;2023-05-28T03:18:10;8.10;;;4.90;;
16593;SDS011;8410;52.532;13.336;2023-05-28T03:20:37;9.00;;;5.53;;
16593;SDS011;8410;52.532;13.336;2023-05-28T03:23:05;10.33;;;5.10;;
16593;SDS011;8410;52.532;13.336;2023-05-28T03:25:34;9.03;;;4.73;;
16593;SDS011;8410;52.532;13.336;2023-05-28T03:28:01;10.77;;;5.37;;
16593;SDS011;8410;52.532;13.336;2023-05-28T03:30:29;8.30;;;5.33;;
16593;SDS011;8410;52.532;13.336;2023-05-28T03:32:57;11.13;;;5.37;;
16593;SDS011;8410;52.532;13.336;2023-05-28T03:35:24;8.73;;;6.00;;
16593;SDS011;8410;52.532;13.336;2023-05-28T03:37:52;11.27;;;5.30;;
16593;SDS011;8410;52.532;13.336;2023-05-28T03:40:19;14.27;;;5.07;;
16593;SDS011;8410;52.532;13.336;2023-05-28T03:42:48;8.27;;;4.70;;
16593;SDS011;8410;52.532;13.336;2023-05-28T03:45:16;6.93;;;5.10;;
16593;SDS011;8410;52.532;13.336;2023-05-28T03:47:43;7.40;;;5.10;;
16593;SDS011;8410;52.532;13.336;2023-05-28T03:50:11;11.60;;;5.20;;
16593;SDS011;8410;52.532;13.336;2023-05-28T03:52:39;7.77;;;5.47;;
16593;SDS011;8410;52.532;13.336;2023-05-28T03:55:07;9.47;;;5.00;;
16593;SDS011;8410;52.532;13.336;2023-05-28T03:57:35;7.90;;;5.13;;
16593;SDS011;8410;52.532;13.336;2023-05-28T04:00:05;9.43;;;4.57;;
16593;SDS011;8410;52.532;13.336;2023-05-28T04:02:35;10.33;;;6.10;;
16593;SDS011;8410;52.532;13.336;2023-05-28T04:05:03;7.40;;;4.47;;
16593;SDS011;8410;52.532;13.336;2023-05-28T04:07:31;9.73;;;5.07;;
16593;SDS011;8410;52.532;13.336;2023-05-28T04:09:59;8.82;;;5.28;;
16593;SDS011;8410;52.532;13.336;2023-05-28T04:12:26;10.57;;;5.20;;
16593;SDS011;8410;52.532;13.336;2023-05-28T04:14:54;6.97;;;4.60;;
16593;SDS011;8410;52.532;13.336;2023-05-28T04:17:23;9.13;;;5.72;;
16593;SDS011;8410;52.532;13.336;2023-05-28T04:19:52;11.20;;;5.22;;
16593;SDS011;8410;52.532;13.336;2023-05-28T04:22:20;7.30;;;5.03;;
16593;SDS011;8410;52.532;13.336;2023-05-28T04:24:51;10.55;;;5.63;;
16593;SDS011;8410;52.532;13.336;2023-05-28T04:27:21;6.80;;;4.90;;
16593;SDS011;8410;52.532;13.336;2023-05-28T04:29:49;9.05;;;4.75;;
16593;SDS011;8410;52.532;13.336;2023-05-28T04:32:18;7.82;;;5.55;;
16593;SDS011;8410;52.532;13.336;2023-05-28T04:34:47;7.53;;;4.97;;
16593;SDS011;8410;52.532;13.336;2023-05-28T04:37:15;7.65;;;4.97;;
16593;SDS011;8410;52.532;13.336;2023-05-28T04:39:42;7.13;;;5.13;;
16593;SDS011;8410;52.532;13.336;2023-05-28T04:42:10;7.18;;;4.75;;
16593;SDS011;8410;52.532;13.336;2023-05-28T04:44:39;7.30;;;4.75;;
16593;SDS011;8410;52.532;13.336;2023-05-28T04:47:07;9.90;;;5.65;;
16593;SDS011;8410;52.532;13.336;2023-05-28T04:49:35;9.00;;;4.88;;
16593;SDS011;8410;52.532;13.336;2023-05-28T04:52:04;9.40;;;5.22;;
16593;SDS011;8410;52.532;13.336;2023-05-28T04:54:31;9.63;;;4.03;;
16593;SDS011;8410;52.532;13.336;2023-05-28T04:56:59;8.77;;;4.68;;
16593;SDS011;8410;52.532;13.336;2023-05-28T04:59:28;12.85;;;4.90;;
16593;SDS011;8410;52.532;13.336;2023-05-28T05:01:56;9.38;;;4.22;;
16593;SDS011;8410;52.532;13.336;2023-05-28T05:04:23;10.03;;;4.77;;
16593;SDS011;8410;52.532;13.336;2023-05-28T05:06:51;9.27;;;4.73;;
16593;SDS011;8410;52.532;13.336;2023-05-28T05:09:20;7.20;;;4.45;;
16593;SDS011;8410;52.532;13.336;2023-05-28T05:11:49;7.45;;;4.80;;
16593;SDS011;8410;52.532;13.336;2023-05-28T05:14:17;12.35;;;4.63;;
16593;SDS011;8410;52.532;13.336;2023-05-28T05:16:47;11.82;;;5.22;;
16593;SDS011;8410;52.532;13.336;2023-05-28T05:19:14;23.95;;;5.50;;
16593;SDS011;8410;52.532;13.336;2023-05-28T05:21:42;21.10;;;5.00;;
16593;SDS011;8410;52.532;13.336;2023-05-28T05:24:09;10.98;;;4.82;;
16593;SDS011;8410;52.532;13.336;2023-05-28T05:26:38;10.65;;;5.05;;
16593;SDS011;8410;52.532;13.336;2023-05-28T05:29:12;11.96;;;4.96;;
16593;SDS011;8410;52.532;13.336;2023-05-28T05:31:39;6.40;;;4.38;;
16593;SDS011;8410;52.532;13.336;2023-05-28T05:34:07;6.90;;;4.30;;
16593;SDS011;8410;52.532;13.336;2023-05-28T05:36:34;9.38;;;5.28;;
16593;SDS011;8410;52.532;13.336;2023-05-28T05:39:02;9.50;;;5.85;;
16593;SDS011;8410;52.532;13.336;2023-05-28T05:41:30;6.15;;;3.85;;
16593;SDS011;8410;52.532;13.336;2023-05-28T05:43:59;7.75;;;3.90;;
16593;SDS011;8410;52.532;13.336;2023-05-28T05:46:26;7.43;;;4.70;;
16593;SDS011;8410;52.532;13.336;2023-05-28T05:48:54;5.57;;;3.78;;
16593;SDS011;8410;52.532;13.336;2023-05-28T05:51:21;8.73;;;4.70;;
16593;SDS011;8410;52.532;13.336;2023-05-28T05:53:49;7.65;;;3.75;;
16593;SDS011;8410;52.532;13.336;2023-05-28T05:56:16;9.57;;;4.43;;
16593;SDS011;8410;52.532;13.336;2023-05-28T05:58:44;6.50;;;4.10;;
16593;SDS011;8410;52.532;13.336;2023-05-28T06:01:12;8.27;;;4.00;;
16593;SDS011;8410;52.532;13.336;2023-05-28T06:03:43;9.68;;;3.90;;
16593;SDS011;8410;52.532;13.336;2023-05-28T06:06:10;6.80;;;3.80;;
16593;SDS011;8410;52.532;13.336;2023-05-28T06:08:38;7.97;;;4.22;;
16593;SDS011;8410;52.532;13.336;2023-05-28T06:11:06;7.97;;;4.43;;
16593;SDS011;8410;52.532;13.336;2023-05-28T06:13:33;7.10;;;3.67;;
16593;SDS011;8410;52.532;13.336;2023-05-28T06:16:01;6.97;;;3.45;;
16593;SDS011;8410;52.532;13.336;2023-05-28T06:18:31;7.85;;;4.38;;
16593;SDS011;8410;52.532;13.336;2023-05-28T06:20:58;9.65;;;4.10;;
16593;SDS011;8410;52.532;13.336;2023-05-28T06:23:26;6.40;;;3.50;;
16593;SDS011;8410;52.532;13.336;2023-05-28T06:25:53;6.82;;;4.75;;
16593;SDS011;8410;52.532;13.336;2023-05-28T06:28:21;7.88;;;3.67;;
16593;SDS011;8410;52.532;13.336;2023-05-28T06:30:48;7.10;;;4.07;;
16593;SDS011;8410;52.532;13.336;2023-05-28T06:33:16;7.28;;;3.72;;
16593;SDS011;8410;52.532;13.336;2023-05-28T06:35:45;6.53;;;3.50;;
16593;SDS011;8410;52.532;13.336;2023-05-28T06:38:12;6.80;;;3.80;;
16593;SDS011;8410;52.532;13.336;2023-05-28T06:40:39;6.50;;;3.20;;
16593;SDS011;8410;52.532;13.336;2023-05-28T06:43:07;5.18;;;3.40;;
16593;SDS011;8410;52.532;13.336;2023-05-28T06:45:34;4.88;;;3.40;;
16593;SDS011;8410;52.532;13.336;2023-05-28T06:48:02;7.15;;;4.25;;
16593;SDS011;8410;52.532;13.336;2023-05-28T06:50:30;6.28;;;3.58;;
16593;SDS011;8410;52.532;13.336;2023-05-28T06:52:59;5.55;;;3.35;;
16593;SDS011;8410;52.532;13.336;2023-05-28T06:55:28;7.15;;;3.22;;
16593;SDS011;8410;52.532;13.336;2023-05-28T06:57:55;5.00;;;3.30;;
16593;SDS011;8410;52.532;13.336;2023-05-28T07:00:22;7.18;;;3.10;;
16593;SDS011;8410;52.532;13.336;2023-05-28T07:02:50;5.45;;;3.00;;
16593;SDS011;8410;52.532;13.336;2023-05-28T07:05:18;6.47;;;2.97;;
16593;SDS011;8410;52.532;13.336;2023-05-28T07:07:45;5.13;;;2.90;;
16593;SDS011;8410;52.532;13.336;2023-05-28T07:10:14;8.48;;;2.88;;
16593;SDS011;8410;52.532;13.336;2023-05-28T07:12:42;10.50;;;8.88;;
16593;SDS011;8410;52.532;13.336;2023-05-28T07:15:10;18.52;;;16.65;;
16593;SDS011;8410;52.532;13.336;2023-05-28T07:17:37;13.43;;;11.90;;
16593;SDS011;8410;52.532;13.336;2023-05-28T07:20:05;22.35;;;20.17;;
16593;SDS011;8410;52.532;13.336;2023-05-28T07:22:34;21.88;;;18.17;;
16593;SDS011;8410;52.532;13.336;2023-05-28T07:25:02;8.43;;;7.57;;
16593;SDS011;8410;52.532;13.336;2023-05-28T07:27:31;8.05;;;5.90;;
16593;SDS011;8410;52.532;13.336;2023-05-28T07:29:59;19.02;;;16.73;;
16593;SDS011;8410;52.532;13.336;2023-05-28T07:32:26;18.55;;;16.75;;
16593;SDS011;8410;52.532;13.336;2023-05-28T07:34:54;6.70;;;2.97;;
16593;SDS011;8410;52.532;13.336;2023-05-28T07:37:22;2.88;;;2.33;;
16593;SDS011;8410;52.532;13.336;2023-05-28T07:39:49;8.95;;;7.10;;
16593;SDS011;8410;52.532;13.336;2023-05-28T07:42:16;5.68;;;3.00;;
16593;SDS011;8410;52.532;13.336;2023-05-28T07:44:45;5.95;;;5.00;;
16593;SDS011;8410;52.532;13.336;2023-05-28T07:47:13;4.50;;;2.28;;
16593;SDS011;8410;52.532;13.336;2023-05-28T07:49:41;4.25;;;2.40;;
16593;SDS011;8410;52.532;13.336;2023-05-28T07:52:09;10.02;;;5.20;;
16593;SDS011;8410;52.532;13.336;2023-05-28T07:54:37;10.30;;;3.88;;
16593;SDS011;8410;52.532;13.336;2023-05-28T07:57:06;4.30;;;2.45;;
16593;SDS011;8410;52.532;13.336;2023-05-28T07:59:34;5.55;;;1.92;;
16593;SDS011;8410;52.532;13.336;2023-05-28T08:02:04;10.20;;;3.25;;
16593;SDS011;8410;52.532;13.336;2023-05-28T08:04:32;3.13;;;2.25;;
16593;SDS011;8410;52.532;13.336;2023-05-28T08:06:59;6.35;;;4.78;;
16593;SDS011;8410;52.532;13.336;2023-05-28T08:09:27;7.30;;;4.53;;
16593;SDS011;8410;52.532;13.336;2023-05-28T08:11:54;6.38;;;2.20;;
16593;SDS011;8410;52.532;13.336;2023-05-28T08:14:22;7.43;;;2.40;;
16593;SDS011;8410;52.532;13.336;2023-05-28T08:16:49;4.38;;;2.05;;
16593;SDS011;8410;52.532;13.336;2023-05-28T08:19:18;3.28;;;2.20;;
16593;SDS011;8410;52.532;13.336;2023-05-28T08:21:46;7.93;;;2.67;;
16593;SDS011;8410;52.532;13.336;2023-05-28T08:24:13;4.65;;;2.53;;
16593;SDS011;8410;52.532;13.336;2023-05-28T08:26:43;4.28;;;2.70;;
16593;SDS011;8410;52.532;13.336;2023-05-28T08:29:10;4.43;;;2.20;;
16593;SDS011;8410;52.532;13.336;2023-05-28T08:31:38;3.47;;;2.28;;
16593;SDS011;8410;52.532;13.336;2023-05-28T08:34:06;5.38;;;2.30;;
16593;SDS011;8410;52.532;13.336;2023-05-28T08:36:35;5.13;;;2.70;;
16593;SDS011;8410;52.532;13.336;2023-05-28T08:39:04;10.07;;;2.13;;
16593;SDS011;8410;52.532;13.336;2023-05-28T08:41:34;3.03;;;2.25;;
16593;SDS011;8410;52.532;13.336;2023-05-28T08:44:01;4.07;;;2.38;;
16593;SDS011;8410;52.532;13.336;2023-05-28T08:46:47;4.60;;;3.85;;
16593;SDS011;8410;52.532;13.336;2023-05-28T08:49:17;4.55;;;2.40;;
16593;SDS011;8410;52.532;13.336;2023-05-28T08:51:47;3.83;;;2.65;;
16593;SDS011;8410;52.532;13.336;2023-05-28T08:54:28;4.05;;;2.78;;
16593;SDS011;8410;52.532;13.336;2023-05-28T09:00:24;3.90;;;3.35;;
16593;SDS011;8410;52.532;13.336;2023-05-28T09:03:10;3.70;;;3.10;;
16593;SDS011;8410;52.532;13.336;2023-05-28T09:05:38;3.63;;;2.25;;
16593;SDS011;8410;52.532;13.336;2023-05-28T09:08:07;5.70;;;2.10;;
16593;SDS011;8410;52.532;13.336;2023-05-28T09:10:36;6.22;;;2.45;;
16593;SDS011;8410;52.532;13.336;2023-05-28T09:13:04;5.28;;;2.13;;
16593;SDS011;8410;52.532;13.336;2023-05-28T09:25:28;4.90;;;2.30;;
16593;SDS011;8410;52.532;13.336;2023-05-28T09:27:59;3.17;;;2.15;;
16593;SDS011;8410;52.532;13.336;2023-05-28T09:30:26;5.53;;;2.20;;
16593;SDS011;8410;52.532;13.336;2023-05-28T09:32:55;4.40;;;2.00;;
16593;SDS011;8410;52.532;13.336;2023-05-28T09:35:25;7.88;;;2.58;;
16593;SDS011;8410;52.532;13.336;2023-05-28T09:37:59;13.40;;;4.22;;
16593;SDS011;8410;52.532;13.336;2023-05-28T09:40:29;4.50;;;2.58;;
16593;SDS011;8410;52.532;13.336;2023-05-28T09:42:57;2.70;;;1.98;;
16593;SDS011;8410;52.532;13.336;2023-05-28T09:45:25;3.35;;;2.38;;
16593;SDS011;8410;52.532;13.336;2023-05-28T09:47:54;8.07;;;2.28;;
16593;SDS011;8410;52.532;13.336;2023-05-28T09:50:22;3.80;;;2.38;;
16593;SDS011;8410;52.532;13.336;2023-05-28T09:52:49;3.25;;;2.22;;
16593;SDS011;8410;52.532;13.336;2023-05-28T09:55:23;3.53;;;2.17;;
16593;SDS011;8410;52.532;13.336;2023-05-28T09:57:54;5.70;;;2.25;;
16593;SDS011;8410;52.532;13.336;2023-05-28T10:00:31;3.30;;;2.53;;
16593;SDS011;8410;52.532;13.336;2023-05-28T10:03:05;3.28;;;2.17;;
16593;SDS011;8410;52.532;13.336;2023-05-28T10:05:37;4.15;;;2.10;;
16593;SDS011;8410;52.532;13.336;2023-05-28T10:08:09;4.00;;;2.00;;
16593;SDS011;8410;52.532;13.336;2023-05-28T10:10:41;3.40;;;2.47;;
16593;SDS011;8410;52.532;13.336;2023-05-28T10:13:13;2.72;;;2.20;;
16593;SDS011;8410;52.532;13.336;2023-05-28T10:15:41;3.90;;;2.10;;
16593;SDS011;8410;52.532;13.336;2023-05-28T10:18:09;3.22;;;2.20;;
16593;SDS011;8410;52.532;13.336;2023-05-28T10:20:38;3.72;;;1.90;;
16593;SDS011;8410;52.532;13.336;2023-05-28T10:23:06;3.05;;;2.03;;
16593;SDS011;8410;52.532;13.336;2023-05-28T10:25:34;2.67;;;2.10;;
16593;SDS011;8410;52.532;13.336;2023-05-28T10:28:02;4.10;;;2.45;;
16593;SDS011;8410;52.532;13.336;2023-05-28T10:30:31;4.25;;;2.28;;
16593;SDS011;8410;52.532;13.336;2023-05-28T10:33:02;3.90;;;1.90;;
16593;SDS011;8410;52.532;13.336;2023-05-28T10:35:31;4.03;;;2.63;;
16593;SDS011;8410;52.532;13.336;2023-05-28T10:38:07;3.70;;;2.30;;
16593;SDS011;8410;52.532;13.336;2023-05-28T10:40:38;4.70;;;2.35;;
16593;SDS011;8410;52.532;13.336;2023-05-28T10:46:05;3.65;;;2.30;;
16593;SDS011;8410;52.532;13.336;2023-05-28T10:48:37;3.75;;;2.20;;
16593;SDS011;8410;52.532;13.336;2023-05-28T10:51:05;5.43;;;2.42;;
16593;SDS011;8410;52.532;13.336;2023-05-28T10:53:32;4.95;;;2.00;;
16593;SDS011;8410;52.532;13.336;2023-05-28T10:56:00;3.17;;;2.40;;
16593;SDS011;8410;52.532;13.336;2023-05-28T10:58:32;4.30;;;2.30;;
16593;SDS011;8410;52.532;13.336;2023-05-28T11:01:04;5.05;;;2.45;;
16593;SDS011;8410;52.532;13.336;2023-05-28T11:03:47;3.55;;;1.90;;
16593;SDS011;8410;52.532;13.336;2023-05-28T11:06:20;2.95;;;2.10;;
16593;SDS011;8410;52.532;13.336;2023-05-28T11:08:48;5.57;;;2.67;;
16593;SDS011;8410;52.532;13.336;2023-05-28T11:11:17;2.75;;;2.10;;
16593;SDS011;8410;52.532;13.336;2023-05-28T11:13:45;3.58;;;2.40;;
16593;SDS011;8410;52.532;13.336;2023-05-28T11:16:16;2.35;;;1.88;;
16593;SDS011;8410;52.532;13.336;2023-05-28T11:19:00;3.75;;;2.00;;
16593;SDS011;8410;52.532;13.336;2023-05-28T11:21:29;4.20;;;2.13;;
16593;SDS011;8410;52.532;13.336;2023-05-28T11:23:58;3.58;;;2.15;;
16593;SDS011;8410;52.532;13.336;2023-05-28T11:26:26;3.40;;;2.20;;
16593;SDS011;8410;52.532;13.336;2023-05-28T11:28:54;4.72;;;2.72;;
16593;SDS011;8410;52.532;13.336;2023-05-28T11:31:23;2.55;;;2.05;;
16593;SDS011;8410;52.532;13.336;2023-05-28T11:33:51;3.78;;;2.55;;
16593;SDS011;8410;52.532;13.336;2023-05-28T11:36:18;6.50;;;2.90;;
16593;SDS011;8410;52.532;13.336;2023-05-28T11:38:46;2.92;;;1.90;;
16593;SDS011;8410;52.532;13.336;2023-05-28T11:41:14;4.28;;;2.30;;
16593;SDS011;8410;52.532;13.336;2023-05-28T11:43:41;3.10;;;2.10;;
16593;SDS011;8410;52.532;13.336;2023-05-28T11:46:09;2.63;;;1.92;;
16593;SDS011;8410;52.532;13.336;2023-05-28T11:48:38;3.33;;;2.10;;
16593;SDS011;8410;52.532;13.336;2023-05-28T11:51:05;4.55;;;2.00;;
16593;SDS011;8410;52.532;13.336;2023-05-28T11:53:40;4.43;;;2.22;;
16593;SDS011;8410;52.532;13.336;2023-05-28T11:56:08;4.32;;;2.25;;
16593;SDS011;8410;52.532;13.336;2023-05-28T11:58:37;2.55;;;2.13;;
16593;SDS011;8410;52.532;13.336;2023-05-28T12:01:06;4.72;;;2.00;;
16593;SDS011;8410;52.532;13.336;2023-05-28T12:03:34;2.90;;;1.88;;
16593;SDS011;8410;52.532;13.336;2023-05-28T12:06:04;3.28;;;2.00;;
16593;SDS011;8410;52.532;13.336;2023-05-28T12:08:32;3.15;;;2.13;;
16593;SDS011;8410;52.532;13.336;2023-05-28T12:11:00;3.33;;;2.10;;
16593;SDS011;8410;52.532;13.336;2023-05-28T12:13:32;3.42;;;2.17;;
16593;SDS011;8410;52.532;13.336;2023-05-28T12:16:07;2.90;;;2.30;;
16593;SDS011;8410;52.532;13.336;2023-05-28T12:18:40;3.72;;;2.17;;
16593;SDS011;8410;52.532;13.336;2023-05-28T12:21:11;4.20;;;2.28;;
16593;SDS011;8410;52.532;13.336;2023-05-28T12:23:39;4.78;;;2.40;;
16593;SDS011;8410;52.532;13.336;2023-05-28T12:26:08;4.35;;;2.10;;
16593;SDS011;8410;52.532;13.336;2023-05-28T12:28:37;3.05;;;2.20;;
16593;SDS011;8410;52.532;13.336;2023-05-28T12:31:07;4.38;;;2.08;;
16593;SDS011;8410;52.532;13.336;2023-05-28T12:33:35;7.13;;;2.20;;
16593;SDS011;8410;52.532;13.336;2023-05-28T12:36:03;4.30;;;1.92;;
16593;SDS011;8410;52.532;13.336;2023-05-28T12:38:32;4.85;;;2.33;;
16593;SDS011;8410;52.532;13.336;2023-05-28T12:41:00;6.32;;;3.35;;
16593;SDS011;8410;52.532;13.336;2023-05-28T12:43:27;3.05;;;2.05;;
16593;SDS011;8410;52.532;13.336;2023-05-28T12:45:54;4.07;;;2.25;;
16593;SDS011;8410;52.532;13.336;2023-05-28T12:48:22;5.15;;;2.38;;
16593;SDS011;8410;52.532;13.336;2023-05-28T12:50:49;5.50;;;2.30;;
16593;SDS011;8410;52.532;13.336;2023-05-28T12:53:17;3.85;;;2.00;;
16593;SDS011;8410;52.532;13.336;2023-05-28T12:55:46;2.58;;;2.00;;
16593;SDS011;8410;52.532;13.336;2023-05-28T12:58:14;3.92;;;1.90;;
16593;SDS011;8410;52.532;13.336;2023-05-28T13:00:41;5.38;;;3.45;;
16593;SDS011;8410;52.532;13.336;2023-05-28T13:03:09;4.97;;;3.88;;
16593;SDS011;8410;52.532;13.336;2023-05-28T13:05:37;3.75;;;2.60;;
16593;SDS011;8410;52.532;13.336;2023-05-28T13:08:04;3.05;;;1.83;;
16593;SDS011;8410;52.532;13.336;2023-05-28T13:10:32;4.00;;;2.38;;
16593;SDS011;8410;52.532;13.336;2023-05-28T13:13:00;5.35;;;3.40;;
16593;SDS011;8410;52.532;13.336;2023-05-28T13:15:28;4.82;;;2.22;;
16593;SDS011;8410;52.532;13.336;2023-05-28T13:17:55;3.92;;;2.40;;
16593;SDS011;8410;52.532;13.336;2023-05-28T13:20:24;3.45;;;2.30;;
16593;SDS011;8410;52.532;13.336;2023-05-28T13:22:52;3.10;;;2.30;;
16593;SDS011;8410;52.532;13.336;2023-05-28T13:25:19;4.05;;;2.20;;
16593;SDS011;8410;52.532;13.336;2023-05-28T13:27:47;3.85;;;2.28;;
16593;SDS011;8410;52.532;13.336;2023-05-28T13:30:17;3.10;;;2.30;;
16593;SDS011;8410;52.532;13.336;2023-05-28T13:32:44;3.08;;;2.63;;
16593;SDS011;8410;52.532;13.336;2023-05-28T13:35:12;6.50;;;2.45;;
16593;SDS011;8410;52.532;13.336;2023-05-28T13:37:40;5.53;;;3.38;;
16593;SDS011;8410;52.532;13.336;2023-05-28T13:40:08;6.40;;;3.55;;
16593;SDS011;8410;52.532;13.336;2023-05-28T13:42:39;3.15;;;2.60;;
16593;SDS011;8410;52.532;13.336;2023-05-28T13:45:07;4.93;;;2.30;;
16593;SDS011;8410;52.532;13.336;2023-05-28T13:47:38;2.63;;;2.20;;
16593;SDS011;8410;52.532;13.336;2023-05-28T13:50:06;3.60;;;2.30;;
16593;SDS011;8410;52.532;13.336;2023-05-28T13:52:33;4.50;;;2.35;;
16593;SDS011;8410;52.532;13.336;2023-05-28T13:55:01;3.80;;;2.13;;
16593;SDS011;8410;52.532;13.336;2023-05-28T13:57:28;5.15;;;2.40;;
16593;SDS011;8410;52.532;13.336;2023-05-28T13:59:56;3.42;;;2.28;;
16593;SDS011;8410;52.532;13.336;2023-05-28T14:02:23;6.25;;;2.35;;
16593;SDS011;8410;52.532;13.336;2023-05-28T14:04:52;3.90;;;2.47;;
16593;SDS011;8410;52.532;13.336;2023-05-28T14:07:20;4.10;;;3.13;;
16593;SDS011;8410;52.532;13.336;2023-05-28T14:09:47;4.15;;;1.90;;
16593;SDS011;8410;52.532;13.336;2023-05-28T14:12:15;5.03;;;2.67;;
16593;SDS011;8410;52.532;13.336;2023-05-28T14:14:48;7.55;;;4.00;;
16593;SDS011;8410;52.532;13.336;2023-05-28T14:17:15;7.38;;;3.10;;
16593;SDS011;8410;52.532;13.336;2023-05-28T14:19:43;4.40;;;2.50;;
16593;SDS011;8410;52.532;13.336;2023-05-28T14:22:14;5.18;;;2.50;;
16593;SDS011;8410;52.532;13.336;2023-05-28T14:24:42;5.20;;;2.10;;
16593;SDS011;8410;52.532;13.336;2023-05-28T14:27:09;6.07;;;2.40;;
16593;SDS011;8410;52.532;13.336;2023-05-28T14:29:37;3.33;;;2.40;;
16593;SDS011;8410;52.532;13.336;2023-05-28T14:32:04;3.42;;;3.13;;
16593;SDS011;8410;52.532;13.336;2023-05-28T14:34:32;4.65;;;4.25;;
16593;SDS011;8410;52.532;13.336;2023-05-28T14:37:00;5.68;;;3.83;;
16593;SDS011;8410;52.532;13.336;2023-05-28T14:39:28;4.43;;;2.90;;
16593;SDS011;8410;52.532;13.336;2023-05-28T14:41:56;7.13;;;2.88;;
16593;SDS011;8410;52.532;13.336;2023-05-28T14:44:23;3.90;;;2.35;;
16593;SDS011;8410;52.532;13.336;2023-05-28T14:46:51;5.03;;;2.70;;
16593;SDS011;8410;52.532;13.336;2023-05-28T14:49:19;5.07;;;2.05;;
16593;SDS011;8410;52.532;13.336;2023-05-28T14:51:46;4.68;;;2.38;;
16593;SDS011;8410;52.532;13.336;2023-05-28T14:54:14;3.80;;;2.20;;
16593;SDS011;8410;52.532;13.336;2023-05-28T14:56:43;4.43;;;2.20;;
16593;SDS011;8410;52.532;13.336;2023-05-28T14:59:10;9.55;;;2.78;;
16593;SDS011;8410;52.532;13.336;2023-05-28T15:01:38;4.43;;;2.17;;
16593;SDS011;8410;52.532;13.336;2023-05-28T15:04:05;6.50;;;3.58;;
16593;SDS011;8410;52.532;13.336;2023-05-28T15:06:33;4.22;;;2.30;;